^^
Saratoga-Weather Station Historical Data
Daily Summary for August 30, 2020 Units:  Both    English   Metric
Daily Weekly Monthly Yearly Custom
  High: Low: Average:
Temperature: 52.5 °F /  11.4 °C 37.4 °F /  3 °C 44.1 °F /  6.7 °C
Dew Point: 51.4 °F /  10.8 °C 35.6 °F /  2 °C 41.9 °F /  5.5 °C
Humidity: 97% 76% 92%
Wind Speed: 14.1mph /  22.7km/h - 0.1mph /  0.1km/h
Wind Gust: 16mph /  25.7km/h - -
Wind- - West
Pressure: 30 in /  1016.9 hPa 29.8 in /  1007.5 hPa -
Precipitation: 0.17 in /  4.3 mm    
Historical Graphs
 
 
Tabular Data for August 30, 2020
Time Temperature Dew Point Pressure Wind Wind Speed Wind Gust Humidity Rainfall Rate (Hourly) solar
00:01 39.4 °F /  4.1 °C 37.6 °F /  3.1 °C 30in /  1016.9hPa Calm     93% 0in /  0.0mm 0 W/m2
00:06 39.2 °F /  4 °C 37.4 °F /  3 °C 30in /  1016.9hPa Calm     93% 0in /  0.0mm 0 W/m2
00:11 39.2 °F /  4 °C 37.4 °F /  3 °C 30in /  1016.9hPa Calm     93% 0in /  0.0mm 0 W/m2
00:16 39.2 °F /  4 °C 37.4 °F /  3 °C 30in /  1016.9hPa Calm   1mph /  1.6km/h 93% 0in /  0.0mm 0 W/m2
00:21 39.4 °F /  4.1 °C 37.6 °F /  3.1 °C 30in /  1016.9hPa Calm     93% 0in /  0.0mm 0 W/m2
00:26 39.4 °F /  4.1 °C 37.6 °F /  3.1 °C 30in /  1016.9hPa Calm     93% 0in /  0.0mm 0 W/m2
00:31 39.4 °F /  4.1 °C 37.6 °F /  3.1 °C 30in /  1016.9hPa Calm     93% 0in /  0.0mm 0 W/m2
00:36 39.4 °F /  4.1 °C 37.6 °F /  3.1 °C 30in /  1016.9hPa Calm     93% 0in /  0.0mm 0 W/m2
00:41 39.4 °F /  4.1 °C 37.6 °F /  3.1 °C 30in /  1016.9hPa Calm     93% 0in /  0.0mm 0 W/m2
00:46 39.4 °F /  4.1 °C 37.6 °F /  3.1 °C 30in /  1016.9hPa Calm     93% 0in /  0.0mm 0 W/m2
00:51 39.4 °F /  4.1 °C 37.6 °F /  3.1 °C 30in /  1016.9hPa Calm     93% 0in /  0.0mm 0 W/m2
00:56 39.4 °F /  4.1 °C 37.6 °F /  3.1 °C 30in /  1016.9hPa Calm     93% 0in /  0.0mm 0 W/m2
01:02 39.4 °F /  4.1 °C 37.6 °F /  3.1 °C 30in /  1016.9hPa Calm     93% 0in /  0.0mm 0 W/m2
01:07 39.4 °F /  4.1 °C 37.6 °F /  3.1 °C 30in /  1016.9hPa Calm     93% 0in /  0.0mm 0 W/m2
01:12 39.4 °F /  4.1 °C 37.6 °F /  3.1 °C 30in /  1016.9hPa Calm     93% 0in /  0.0mm 0 W/m2
01:17 39.4 °F /  4.1 °C 37.6 °F /  3.1 °C 30in /  1016.9hPa Calm     93% 0in /  0.0mm 0 W/m2
01:22 39.4 °F /  4.1 °C 37.6 °F /  3.1 °C 30in /  1016.9hPa Calm     93% 0in /  0.0mm 0 W/m2
01:27 39.4 °F /  4.1 °C 37.6 °F /  3.1 °C 30in /  1016.9hPa Calm     93% 0in /  0.0mm 0 W/m2
01:32 39.4 °F /  4.1 °C 37.6 °F /  3.1 °C 30in /  1016.6hPa Calm     93% 0in /  0.0mm 0 W/m2
01:37 39.2 °F /  4 °C 37.4 °F /  3 °C 30in /  1016.6hPa Calm     93% 0in /  0.0mm 0 W/m2
01:42 39 °F /  3.9 °C 37.2 °F /  2.9 °C 30in /  1016.6hPa Calm     93% 0in /  0.0mm 0 W/m2
01:47 39 °F /  3.9 °C 37.2 °F /  2.9 °C 30in /  1016.6hPa Calm     93% 0in /  0.0mm 0 W/m2
01:52 39 °F /  3.9 °C 37.2 °F /  2.9 °C 30in /  1016.6hPa Calm   1mph /  1.6km/h 93% 0in /  0.0mm 0 W/m2
01:57 39 °F /  3.9 °C 37.2 °F /  2.9 °C 30in /  1016.6hPa Calm     93% 0in /  0.0mm 0 W/m2
02:02 39 °F /  3.9 °C 37.2 °F /  2.9 °C 30in /  1016.6hPa Calm   1mph /  1.6km/h 93% 0in /  0.0mm 0 W/m2
02:07 39 °F /  3.9 °C 37.2 °F /  2.9 °C 30in /  1016.6hPa Calm     93% 0in /  0.0mm 0 W/m2
02:12 39 °F /  3.9 °C 37.2 °F /  2.9 °C 30in /  1016.6hPa Calm     93% 0in /  0.0mm 0 W/m2
02:17 39 °F /  3.9 °C 37.2 °F /  2.9 °C 30in /  1016.6hPa Calm     93% 0in /  0.0mm 0 W/m2
02:22 39 °F /  3.9 °C 37.2 °F /  2.9 °C 30in /  1016.6hPa Calm     93% 0in /  0.0mm 0 W/m2
02:27 38.8 °F /  3.8 °C 37 °F /  2.8 °C 30in /  1016.3hPa Calm   1mph /  1.6km/h 93% 0in /  0.0mm 0 W/m2
02:32 39 °F /  3.9 °C 37.2 °F /  2.9 °C 30in /  1016.3hPa Calm     93% 0in /  0.0mm 0 W/m2
02:37 39 °F /  3.9 °C 37.2 °F /  2.9 °C 30in /  1016.3hPa Calm     93% 0in /  0.0mm 0 W/m2
02:42 39 °F /  3.9 °C 37.2 °F /  2.9 °C 30in /  1016.3hPa Calm     93% 0in /  0.0mm 0 W/m2
02:47 39 °F /  3.9 °C 37.2 °F /  2.9 °C 30in /  1016.3hPa Calm     93% 0in /  0.0mm 0 W/m2
02:52 38.8 °F /  3.8 °C 37 °F /  2.8 °C 30in /  1016.6hPa Calm   1mph /  1.6km/h 93% 0in /  0.0mm 0 W/m2
02:57 38.8 °F /  3.8 °C 37 °F /  2.8 °C 30in /  1016.3hPa Calm     93% 0in /  0.0mm 0 W/m2
03:02 38.8 °F /  3.8 °C 37 °F /  2.8 °C 30in /  1016.6hPa Calm     93% 0in /  0.0mm 0 W/m2
03:07 38.8 °F /  3.8 °C 37 °F /  2.8 °C 30in /  1016.3hPa Calm     93% 0in /  0.0mm 0 W/m2
03:12 38.8 °F /  3.8 °C 37 °F /  2.8 °C 30in /  1016.6hPa Calm     93% 0in /  0.0mm 0 W/m2
03:18 38.8 °F /  3.8 °C 37 °F /  2.8 °C 30in /  1016.6hPa Calm     93% 0in /  0.0mm 0 W/m2
03:23 38.7 °F /  3.7 °C 36.9 °F /  2.7 °C 30in /  1016.6hPa Calm     93% 0in /  0.0mm 0 W/m2
03:28 38.7 °F /  3.7 °C 36.9 °F /  2.7 °C 30in /  1016.3hPa Calm     93% 0in /  0.0mm 0 W/m2
03:33 38.5 °F /  3.6 °C 36.7 °F /  2.6 °C 30in /  1016.3hPa Calm     93% 0in /  0.0mm 0 W/m2
03:38 38.5 °F /  3.6 °C 36.7 °F /  2.6 °C 30in /  1016.3hPa Calm     93% 0in /  0.0mm 0 W/m2
03:43 38.3 °F /  3.5 °C 36.5 °F /  2.5 °C 30in /  1016.3hPa Calm     93% 0in /  0.0mm 0 W/m2
03:48 38.3 °F /  3.5 °C 36.5 °F /  2.5 °C 30in /  1015.9hPa Calm     93% 0in /  0.0mm 0 W/m2
03:53 38.5 °F /  3.6 °C 36.9 °F /  2.7 °C 30in /  1016.3hPa Calm     94% 0in /  0.0mm 0 W/m2
03:58 38.5 °F /  3.6 °C 36.9 °F /  2.7 °C 30in /  1015.9hPa Calm     94% 0in /  0.0mm 0 W/m2
04:03 38.5 °F /  3.6 °C 36.7 °F /  2.6 °C 30in /  1015.9hPa Calm     93% 0in /  0.0mm 0 W/m2
04:08 38.5 °F /  3.6 °C 36.7 °F /  2.6 °C 30in /  1015.9hPa Calm     93% 0in /  0.0mm 0 W/m2
04:13 38.3 °F /  3.5 °C 36.7 °F /  2.6 °C 30in /  1015.9hPa Calm     94% 0in /  0.0mm 0 W/m2
04:18 38.5 °F /  3.6 °C 36.9 °F /  2.7 °C 30in /  1015.9hPa Calm     94% 0in /  0.0mm 0 W/m2
04:23 38.1 °F /  3.4 °C 36.3 °F /  2.4 °C 30in /  1015.9hPa Calm     93% 0in /  0.0mm 0 W/m2
04:28 38.1 °F /  3.4 °C 36.5 °F /  2.5 °C 30in /  1015.9hPa Calm     94% 0in /  0.0mm 0 W/m2
04:33 38.3 °F /  3.5 °C 36.7 °F /  2.6 °C 30in /  1015.6hPa Calm     94% 0in /  0.0mm 0 W/m2
04:38 38.3 °F /  3.5 °C 36.7 °F /  2.6 °C 30in /  1015.6hPa Calm     94% 0in /  0.0mm 0 W/m2
04:43 38.3 °F /  3.5 °C 36.7 °F /  2.6 °C 30in /  1015.6hPa Calm     94% 0in /  0.0mm 0 W/m2
04:48 38.5 °F /  3.6 °C 36.9 °F /  2.7 °C 30in /  1015.6hPa Calm     94% 0in /  0.0mm 0 W/m2
04:53 38.5 °F /  3.6 °C 36.9 °F /  2.7 °C 30in /  1015.6hPa Calm     94% 0in /  0.0mm 0 W/m2
04:58 38.7 °F /  3.7 °C 37 °F /  2.8 °C 30in /  1015.6hPa Calm     94% 0in /  0.0mm 0 W/m2
05:03 38.7 °F /  3.7 °C 37 °F /  2.8 °C 30in /  1015.6hPa Calm     94% 0in /  0.0mm 0 W/m2
05:09 38.7 °F /  3.7 °C 36.9 °F /  2.7 °C 30in /  1015.6hPa Calm     93% 0in /  0.0mm 0 W/m2
05:14 38.7 °F /  3.7 °C 36.9 °F /  2.7 °C 30in /  1015.6hPa Calm     93% 0in /  0.0mm 0 W/m2
05:19 38.7 °F /  3.7 °C 36.9 °F /  2.7 °C 30in /  1015.6hPa Calm     93% 0in /  0.0mm 0 W/m2
05:24 38.5 °F /  3.6 °C 36.7 °F /  2.6 °C 30in /  1015.6hPa Calm     93% 0in /  0.0mm 0 W/m2
05:29 38.3 °F /  3.5 °C 36.5 °F /  2.5 °C 30in /  1015.6hPa Calm     93% 0in /  0.0mm 0 W/m2
05:34 37.9 °F /  3.3 °C 36.1 °F /  2.3 °C 30in /  1015.2hPa Calm     93% 0in /  0.0mm 0 W/m2
05:39 37.6 °F /  3.1 °C 35.8 °F /  2.1 °C 30in /  1015.2hPa Calm     93% 0in /  0.0mm 0 W/m2
05:44 37.4 °F /  3 °C 35.6 °F /  2 °C 30in /  1015.2hPa Calm     93% 0in /  0.0mm 0 W/m2
05:49 37.4 °F /  3 °C 35.8 °F /  2.1 °C 30in /  1015.2hPa Calm     94% 0in /  0.0mm 0 W/m2
05:54 37.8 °F /  3.2 °C 36.1 °F /  2.3 °C 30in /  1015.2hPa Calm     94% 0in /  0.0mm 0 W/m2
06:00 37.8 °F /  3.2 °C 36.1 °F /  2.3 °C 30in /  1015.2hPa Calm     94% 0in /  0.0mm 0 W/m2
06:05 37.8 °F /  3.2 °C 36.5 °F /  2.5 °C 30in /  1015.2hPa Calm     95% 0in /  0.0mm 0 W/m2
06:10 37.9 °F /  3.3 °C 36.7 °F /  2.6 °C 30in /  1015.2hPa Calm   1mph /  1.6km/h 95% 0in /  0.0mm 0 W/m2
06:15 38.3 °F /  3.5 °C 37 °F /  2.8 °C 30in /  1015.2hPa Calm     95% 0in /  0.0mm 0 W/m2
06:20 38.7 °F /  3.7 °C 37.4 °F /  3 °C 30in /  1015.2hPa Calm     95% 0in /  0.0mm 0 W/m2
06:25 39 °F /  3.9 °C 37.8 °F /  3.2 °C 30in /  1015.2hPa Calm     95% 0in /  0.0mm 0 W/m2
06:30 39.4 °F /  4.1 °C 38.1 °F /  3.4 °C 30in /  1015.2hPa Calm     95% 0in /  0.0mm 0 W/m2
06:35 39.4 °F /  4.1 °C 37.8 °F /  3.2 °C 30in /  1015.2hPa Calm     94% 0in /  0.0mm 0 W/m2
06:40 39.6 °F /  4.2 °C 37.9 °F /  3.3 °C 30in /  1015.2hPa Calm     94% 0in /  0.0mm 0 W/m2
06:45 39.7 °F /  4.3 °C 38.1 °F /  3.4 °C 30in /  1014.9hPa Calm     94% 0in /  0.0mm 0 W/m2
06:50 39.9 °F /  4.4 °C 38.3 °F /  3.5 °C 30in /  1014.9hPa Calm     94% 0in /  0.0mm 0 W/m2
06:55 39.9 °F /  4.4 °C 38.3 °F /  3.5 °C 30in /  1014.9hPa Calm     94% 0in /  0.0mm 0 W/m2
07:00 40.1 °F /  4.5 °C 38.5 °F /  3.6 °C 30in /  1015.2hPa Calm     94% 0in /  0.0mm 0 W/m2
07:05 40.1 °F /  4.5 °C 38.5 °F /  3.6 °C 30in /  1014.9hPa Calm     94% 0in /  0.0mm 0 W/m2
07:10 40.3 °F /  4.6 °C 38.5 °F /  3.6 °C 30in /  1014.9hPa Calm     93% 0in /  0.0mm 0 W/m2
07:15 40.3 °F /  4.6 °C 38.7 °F /  3.7 °C 30in /  1014.9hPa Calm     94% 0in /  0.0mm 0 W/m2
07:20 40.3 °F /  4.6 °C 38.5 °F /  3.6 °C 30in /  1014.9hPa Calm     93% 0in /  0.0mm 0 W/m2
07:25 40.3 °F /  4.6 °C 38.5 °F /  3.6 °C 30in /  1014.9hPa Calm     93% 0in /  0.0mm 0 W/m2
07:30 40.3 °F /  4.6 °C 38.5 °F /  3.6 °C 30in /  1014.9hPa Calm     93% 0in /  0.0mm 0 W/m2
07:35 40.3 °F /  4.6 °C 38.5 °F /  3.6 °C 30in /  1014.9hPa Calm     93% 0in /  0.0mm 0 W/m2
07:40 40.3 °F /  4.6 °C 38.5 °F /  3.6 °C 30in /  1014.9hPa Calm     93% 0in /  0.0mm 0 W/m2
07:45 40.1 °F /  4.5 °C 38.3 °F /  3.5 °C 30in /  1014.9hPa Calm     93% 0in /  0.0mm 0 W/m2
07:50 39.7 °F /  4.3 °C 37.9 °F /  3.3 °C 30in /  1014.9hPa Calm     93% 0in /  0.0mm 0 W/m2
07:55 39.4 °F /  4.1 °C 37.2 °F /  2.9 °C 30in /  1014.9hPa Calm     92% 0in /  0.0mm 0 W/m2
08:00 39 °F /  3.9 °C 37.2 °F /  2.9 °C 30in /  1014.9hPa Calm     93% 0in /  0.0mm 0 W/m2
08:05 38.8 °F /  3.8 °C 37 °F /  2.8 °C 30in /  1014.9hPa Calm     93% 0in /  0.0mm 5 W/m2
08:10 38.5 °F /  3.6 °C 36.7 °F /  2.6 °C 30in /  1014.6hPa Calm     93% 0in /  0.0mm 7 W/m2
08:15 38.7 °F /  3.7 °C 37 °F /  2.8 °C 30in /  1014.9hPa Calm     94% 0in /  0.0mm 5 W/m2
08:20 38.7 °F /  3.7 °C 37 °F /  2.8 °C 30in /  1014.9hPa Calm     94% 0in /  0.0mm 9 W/m2
08:25 38.5 °F /  3.6 °C 36.9 °F /  2.7 °C 30in /  1014.9hPa Calm     94% 0in /  0.0mm 12 W/m2
08:30 38.3 °F /  3.5 °C 36.7 °F /  2.6 °C 30in /  1014.9hPa Calm     94% 0in /  0.0mm 18 W/m2
08:35 38.1 °F /  3.4 °C 36.5 °F /  2.5 °C 30in /  1014.6hPa Calm     94% 0in /  0.0mm 23 W/m2
08:40 37.9 °F /  3.3 °C 36.3 °F /  2.4 °C 30in /  1014.9hPa Calm     94% 0in /  0.0mm 28 W/m2
08:45 37.9 °F /  3.3 °C 36.3 °F /  2.4 °C 30in /  1014.9hPa Calm     94% 0in /  0.0mm 30 W/m2
08:50 37.9 °F /  3.3 °C 36.7 °F /  2.6 °C 30in /  1014.6hPa Calm     95% 0in /  0.0mm 35 W/m2
08:55 37.9 °F /  3.3 °C 36.7 °F /  2.6 °C 30in /  1014.6hPa Calm     95% 0in /  0.0mm 42 W/m2
09:00 38.1 °F /  3.4 °C 36.9 °F /  2.7 °C 30in /  1014.9hPa Calm     95% 0in /  0.0mm 46 W/m2
09:05 38.1 °F /  3.4 °C 36.9 °F /  2.7 °C 30in /  1014.9hPa Calm     95% 0in /  0.0mm 47 W/m2
09:10 38.3 °F /  3.5 °C 37 °F /  2.8 °C 30in /  1014.9hPa Calm     95% 0in /  0.0mm 46 W/m2
09:15 38.5 °F /  3.6 °C 37.2 °F /  2.9 °C 30in /  1014.6hPa Calm     95% 0in /  0.0mm 47 W/m2
09:20 38.5 °F /  3.6 °C 37.2 °F /  2.9 °C 30in /  1014.6hPa Calm     95% 0in /  0.0mm 47 W/m2
09:25 38.5 °F /  3.6 °C 37.2 °F /  2.9 °C 30in /  1014.6hPa Calm     95% 0in /  0.0mm 49 W/m2
09:30 38.7 °F /  3.7 °C 37.4 °F /  3 °C 30in /  1014.6hPa Calm     95% 0in /  0.0mm 56 W/m2
09:35 38.8 °F /  3.8 °C 37.8 °F /  3.2 °C 30in /  1014.6hPa Calm     96% 0in /  0.0mm 62 W/m2
09:40 39 °F /  3.9 °C 37.9 °F /  3.3 °C 30in /  1014.6hPa Calm     96% 0in /  0.0mm 76 W/m2
09:45 39 °F /  3.9 °C 37.9 °F /  3.3 °C 30in /  1014.6hPa Calm     96% 0in /  0.0mm 81 W/m2
09:50 39.4 °F /  4.1 °C 38.3 °F /  3.5 °C 30in /  1014.6hPa Calm     96% 0in /  0.0mm 88 W/m2
09:55 39.6 °F /  4.2 °C 38.5 °F /  3.6 °C 30in /  1014.6hPa Calm     96% 0in /  0.0mm 91 W/m2
10:00 39.7 °F /  4.3 °C 38.7 °F /  3.7 °C 30in /  1014.2hPa Calm     96% 0in /  0.0mm 100 W/m2
10:05 39.9 °F /  4.4 °C 38.8 °F /  3.8 °C 30in /  1014.2hPa Calm     96% 0in /  0.0mm 98 W/m2
10:10 40.3 °F /  4.6 °C 39.2 °F /  4 °C 30in /  1014.2hPa Calm     96% 0in /  0.0mm 97 W/m2
10:15 40.5 °F /  4.7 °C 39.4 °F /  4.1 °C 30in /  1014.2hPa Calm     96% 0in /  0.0mm 98 W/m2
10:20 40.8 °F /  4.9 °C 39.7 °F /  4.3 °C 30in /  1014.2hPa Calm     96% 0in /  0.0mm 93 W/m2
10:26 41.2 °F /  5.1 °C 39.9 °F /  4.4 °C 30in /  1014.2hPa Calm     95% 0in /  0.0mm 91 W/m2
10:31 41.4 °F /  5.2 °C 40.1 °F /  4.5 °C 30in /  1014.2hPa Calm     95% 0in /  0.0mm 97 W/m2
10:36 41.7 °F /  5.4 °C 40.5 °F /  4.7 °C 30in /  1014.2hPa Calm     95% 0in /  0.0mm 109 W/m2
10:41 41.9 °F /  5.5 °C 40.6 °F /  4.8 °C 30in /  1014.2hPa Calm     95% 0in /  0.0mm 114 W/m2
10:46 42.3 °F /  5.7 °C 40.6 °F /  4.8 °C 29.9in /  1013.9hPa Calm     94% 0in /  0.0mm 123 W/m2
10:51 42.6 °F /  5.9 °C 41 °F /  5 °C 29.9in /  1013.9hPa Calm     94% 0in /  0.0mm 120 W/m2
10:56 43.2 °F /  6.2 °C 41.5 °F /  5.3 °C 29.9in /  1013.9hPa Calm     94% 0in /  0.0mm 121 W/m2
11:01 43.5 °F /  6.4 °C 41.7 °F /  5.4 °C 29.9in /  1013.9hPa Calm     93% 0in /  0.0mm 127 W/m2
11:06 43.9 °F /  6.6 °C 41.7 °F /  5.4 °C 29.9in /  1013.9hPa Calm     92% 0in /  0.0mm 128 W/m2
11:11 44.2 °F /  6.8 °C 41.7 °F /  5.4 °C 29.9in /  1013.9hPa Calm     91% 0in /  0.0mm 132 W/m2
11:16 44.4 °F /  6.9 °C 41.9 °F /  5.5 °C 29.9in /  1013.9hPa Calm     91% 0in /  0.0mm 134 W/m2
11:21 45 °F /  7.2 °C 42.3 °F /  5.7 °C 29.9in /  1013.9hPa Calm     90% 0in /  0.0mm 142 W/m2
11:26 45.1 °F /  7.3 °C 42.1 °F /  5.6 °C 29.9in /  1013.5hPa Calm     89% 0in /  0.0mm 153 W/m2
11:31 45.3 °F /  7.4 °C 41.9 °F /  5.5 °C 29.9in /  1013.5hPa Calm     88% 0in /  0.0mm 153 W/m2
11:36 45.7 °F /  7.6 °C 42.1 °F /  5.6 °C 29.9in /  1013.5hPa Calm     87% 0in /  0.0mm 151 W/m2
11:41 45.9 °F /  7.7 °C 42.3 °F /  5.7 °C 29.9in /  1013.5hPa Calm     87% 0in /  0.0mm 153 W/m2
11:46 46 °F /  7.8 °C 42.1 °F /  5.6 °C 29.9in /  1013.5hPa Calm     86% 0in /  0.0mm 156 W/m2
11:51 46 °F /  7.8 °C 41.7 °F /  5.4 °C 29.9in /  1013.5hPa Calm     85% 0in /  0.0mm 163 W/m2
11:56 46.2 °F /  7.9 °C 41.9 °F /  5.5 °C 29.9in /  1013.2hPa Calm     85% 0in /  0.0mm 176 W/m2
12:01 46.4 °F /  8 °C 41.9 °F /  5.5 °C 29.9in /  1013.2hPa Calm     84% 0in /  0.0mm 181 W/m2
12:06 46.6 °F /  8.1 °C 41.7 °F /  5.4 °C 29.9in /  1012.9hPa Calm     83% 0in /  0.0mm 176 W/m2
12:11 46.8 °F /  8.2 °C 41.9 °F /  5.5 °C 29.9in /  1012.9hPa Calm   1mph /  1.6km/h 83% 0in /  0.0mm 174 W/m2
12:16 46.9 °F /  8.3 °C 42.1 °F /  5.6 °C 29.9in /  1012.9hPa Calm     83% 0in /  0.0mm 179 W/m2
12:21 47.1 °F /  8.4 °C 41.9 °F /  5.5 °C 29.9in /  1012.5hPa Calm   1mph /  1.6km/h 82% 0in /  0.0mm 185 W/m2
12:26 47.1 °F /  8.4 °C 41.4 °F /  5.2 °C 29.9in /  1012.5hPa Calm     80% 0in /  0.0mm 193 W/m2
12:31 47.1 °F /  8.4 °C 41.4 °F /  5.2 °C 29.9in /  1012.5hPa Calm     80% 0in /  0.0mm 169 W/m2
12:36 47.1 °F /  8.4 °C 41.4 °F /  5.2 °C 29.9in /  1012.2hPa Calm     80% 0in /  0.0mm 151 W/m2
12:41 47.3 °F /  8.5 °C 41.4 °F /  5.2 °C 29.9in /  1012.2hPa Calm     80% 0in /  0.0mm 148 W/m2
12:46 47.3 °F /  8.5 °C 41.4 °F /  5.2 °C 29.9in /  1012.2hPa Calm     80% 0in /  0.0mm 141 W/m2
12:51 47.5 °F /  8.6 °C 41.5 °F /  5.3 °C 29.9in /  1011.9hPa Calm     80% 0in /  0.0mm 137 W/m2
12:56 47.5 °F /  8.6 °C 41.5 °F /  5.3 °C 29.9in /  1011.9hPa Calm     80% 0in /  0.0mm 146 W/m2
13:01 47.5 °F /  8.6 °C 41.4 °F /  5.2 °C 29.9in /  1011.9hPa Calm     79% 0in /  0.0mm 148 W/m2
13:06 47.7 °F /  8.7 °C 41.5 °F /  5.3 °C 29.9in /  1011.9hPa Calm     79% 0in /  0.0mm 146 W/m2
13:11 47.7 °F /  8.7 °C 41.5 °F /  5.3 °C 29.9in /  1011.9hPa Calm     79% 0in /  0.0mm 153 W/m2
13:16 47.7 °F /  8.7 °C 41.2 °F /  5.1 °C 29.9in /  1011.9hPa Calm     78% 0in /  0.0mm 160 W/m2
13:21 47.8 °F /  8.8 °C 41.4 °F /  5.2 °C 29.9in /  1011.5hPa Calm     78% 0in /  0.0mm 155 W/m2
13:27 47.8 °F /  8.8 °C 41 °F /  5 °C 29.9in /  1011.5hPa Calm     77% 0in /  0.0mm 148 W/m2
13:32 48 °F /  8.9 °C 41.5 °F /  5.3 °C 29.9in /  1011.5hPa Calm     78% 0in /  0.0mm 153 W/m2
13:37 48.4 °F /  9.1 °C 41.5 °F /  5.3 °C 29.9in /  1011.2hPa Calm     77% 0in /  0.0mm 155 W/m2
13:42 48.4 °F /  9.1 °C 41.2 °F /  5.1 °C 29.9in /  1010.8hPa Calm     76% 0in /  0.0mm 146 W/m2
13:47 48.6 °F /  9.2 °C 41.7 °F /  5.4 °C 29.9in /  1010.8hPa Calm     77% 0in /  0.0mm 123 W/m2
13:52 48.6 °F /  9.2 °C 41.7 °F /  5.4 °C 29.9in /  1010.8hPa Calm     77% 0in /  0.0mm 125 W/m2
13:57 48.7 °F /  9.3 °C 41.9 °F /  5.5 °C 29.9in /  1010.8hPa Calm     77% 0in /  0.0mm 130 W/m2
14:02 48.7 °F /  9.3 °C 42.3 °F /  5.7 °C 29.9in /  1010.8hPa Calm     78% 0in /  0.0mm 137 W/m2
14:07 48.9 °F /  9.4 °C 42.6 °F /  5.9 °C 29.9in /  1010.8hPa Calm     79% 0in /  0.0mm 130 W/m2
14:13 48.9 °F /  9.4 °C 42.6 °F /  5.9 °C 29.8in /  1010.5hPa Calm     79% 0in /  0.0mm 74 W/m2
14:18 48.9 °F /  9.4 °C 42.6 °F /  5.9 °C 29.8in /  1010.5hPa Calm     79% 0in /  0.0mm 72 W/m2
14:23 48.7 °F /  9.3 °C 42.4 °F /  5.8 °C 29.8in /  1010.2hPa Calm     79% 0in /  0.0mm 70 W/m2
14:28 48.7 °F /  9.3 °C 42.8 °F /  6 °C 29.8in /  1010.2hPa Calm     80% 0in /  0.0mm 70 W/m2
14:33 48.6 °F /  9.2 °C 42.6 °F /  5.9 °C 29.8in /  1010.2hPa Calm     80% 0in /  0.0mm 76 W/m2
14:38 48.6 °F /  9.2 °C 43 °F /  6.1 °C 29.8in /  1009.8hPa Calm     81% 0in /  0.0mm 67 W/m2
14:43 48.4 °F /  9.1 °C 42.8 °F /  6 °C 29.8in /  1009.8hPa Calm     81% 0in /  0.0mm 51 W/m2
14:48 48.4 °F /  9.1 °C 42.8 °F /  6 °C 29.8in /  1009.8hPa Calm     81% 0in /  0.0mm 46 W/m2
14:53 48.4 °F /  9.1 °C 42.8 °F /  6 °C 29.8in /  1009.8hPa Calm     81% 0in /  0.0mm 53 W/m2
14:58 48.4 °F /  9.1 °C 43.2 °F /  6.2 °C 29.8in /  1009.8hPa Calm     82% 0in /  0.0mm 56 W/m2
15:03 48 °F /  8.9 °C 43.2 °F /  6.2 °C 29.8in /  1009.5hPa Calm     83% 0in /  0.0mm 32 W/m2
15:08 47.7 °F /  8.7 °C 43.3 °F /  6.3 °C 29.8in /  1009.5hPa Calm     85% 0in /  0.0mm 30 W/m2
15:13 47.3 °F /  8.5 °C 43.3 °F /  6.3 °C 29.8in /  1009.5hPa Calm     86% 0in /  0.0mm 26 W/m2
15:18 47.1 °F /  8.4 °C 43.5 °F /  6.4 °C 29.8in /  1009.5hPa Calm     87% 0in /  0.0mm 26 W/m2
15:23 46.9 °F /  8.3 °C 43.3 °F /  6.3 °C 29.8in /  1009.5hPa Calm     87% 0in /  0.0mm 25 W/m2
15:28 46.9 °F /  8.3 °C 43.5 °F /  6.4 °C 29.8in /  1009.5hPa Calm     88% 0in /  0.0mm 28 W/m2
15:33 46.9 °F /  8.3 °C 43.5 °F /  6.4 °C 29.8in /  1009.5hPa Calm     88% 0.01in /  0.2mm 32 W/m2
15:38 46.9 °F /  8.3 °C 43.5 °F /  6.4 °C 29.8in /  1009.5hPa Calm     88% 0.01in /  0.2mm 26 W/m2
15:43 46.9 °F /  8.3 °C 43.5 °F /  6.4 °C 29.8in /  1009.1hPa Calm     88% 0.01in /  0.2mm 30 W/m2
15:48 46.9 °F /  8.3 °C 43.5 °F /  6.4 °C 29.8in /  1009.1hPa Calm     88% 0.01in /  0.2mm 35 W/m2
15:53 46.9 °F /  8.3 °C 43.9 °F /  6.6 °C 29.8in /  1009.1hPa Calm     89% 0.01in /  0.2mm 30 W/m2
15:58 46.9 °F /  8.3 °C 43.9 °F /  6.6 °C 29.8in /  1009.1hPa Calm     89% 0.02in /  0.5mm 23 W/m2
16:03 46.9 °F /  8.3 °C 43.9 °F /  6.6 °C 29.8in /  1009.1hPa Calm     89% 0.02in /  0.5mm 21 W/m2
16:08 46.8 °F /  8.2 °C 44.1 °F /  6.7 °C 29.8in /  1009.1hPa Calm     90% 0.02in /  0.5mm 21 W/m2
16:13 46.8 °F /  8.2 °C 44.1 °F /  6.7 °C 29.8in /  1009.1hPa Calm     90% 0.02in /  0.5mm 18 W/m2
16:18 46.8 °F /  8.2 °C 44.1 °F /  6.7 °C 29.8in /  1008.8hPa Calm     90% 0.02in /  0.5mm 16 W/m2
16:23 46.8 °F /  8.2 °C 44.2 °F /  6.8 °C 29.8in /  1008.8hPa Calm     91% 0.02in /  0.5mm 14 W/m2
16:28 46.8 °F /  8.2 °C 44.2 °F /  6.8 °C 29.8in /  1008.8hPa Calm     91% 0.02in /  0.5mm 12 W/m2
16:34 46.6 °F /  8.1 °C 44.1 °F /  6.7 °C 29.8in /  1008.8hPa Calm     91% 0.01in /  0.2mm 12 W/m2
16:39 46.6 °F /  8.1 °C 44.1 °F /  6.7 °C 29.8in /  1008.8hPa Calm     91% 0.02in /  0.5mm 12 W/m2
16:44 46.6 °F /  8.1 °C 44.4 °F /  6.9 °C 29.8in /  1008.8hPa Calm     92% 0.02in /  0.5mm 11 W/m2
16:49 46.4 °F /  8 °C 44.2 °F /  6.8 °C 29.8in /  1008.8hPa Calm     92% 0.02in /  0.5mm 7 W/m2
16:54 46.2 °F /  7.9 °C 44.2 °F /  6.8 °C 29.8in /  1008.5hPa Calm     93% 0.02in /  0.5mm 7 W/m2
16:59 46.2 °F /  7.9 °C 44.2 °F /  6.8 °C 29.8in /  1008.5hPa Calm     93% 0.02in /  0.5mm 7 W/m2
17:04 46.2 °F /  7.9 °C 44.2 °F /  6.8 °C 29.8in /  1008.5hPa Calm     93% 0.02in /  0.5mm 5 W/m2
17:09 46 °F /  7.8 °C 44.1 °F /  6.7 °C 29.8in /  1008.5hPa Calm     93% 0.02in /  0.5mm 0 W/m2
17:14 46 °F /  7.8 °C 44.4 °F /  6.9 °C 29.8in /  1008.5hPa Calm     94% 0.02in /  0.5mm 0 W/m2
17:19 46 °F /  7.8 °C 44.4 °F /  6.9 °C 29.8in /  1008.5hPa Calm     94% 0.02in /  0.5mm 0 W/m2
17:24 46 °F /  7.8 °C 44.4 °F /  6.9 °C 29.8in /  1008.5hPa Calm     94% 0.02in /  0.5mm 0 W/m2
17:29 46 °F /  7.8 °C 44.4 °F /  6.9 °C 29.8in /  1008.5hPa Calm     94% 0.02in /  0.5mm 0 W/m2
17:34 46 °F /  7.8 °C 44.6 °F /  7 °C 29.8in /  1008.1hPa Calm     95% 0.02in /  0.5mm 0 W/m2
17:39 46.2 °F /  7.9 °C 44.8 °F /  7.1 °C 29.8in /  1008.1hPa Calm     95% 0.02in /  0.5mm 0 W/m2
17:44 46.2 °F /  7.9 °C 44.8 °F /  7.1 °C 29.8in /  1008.1hPa Calm     95% 0.02in /  0.5mm 0 W/m2
17:49 46.2 °F /  7.9 °C 44.8 °F /  7.1 °C 29.8in /  1008.1hPa Calm   1mph /  1.6km/h 95% 0.02in /  0.5mm 0 W/m2
17:54 46.4 °F /  8 °C 45 °F /  7.2 °C 29.8in /  1008.1hPa Calm     95% 0.02in /  0.5mm 0 W/m2
17:59 46.4 °F /  8 °C 45 °F /  7.2 °C 29.8in /  1008.1hPa Calm   2mph /  3.2km/h 95% 0.02in /  0.5mm 0 W/m2
18:04 46.6 °F /  8.1 °C 45.1 °F /  7.3 °C 29.8in /  1008.1hPa Calm     95% 0.02in /  0.5mm 0 W/m2
18:10 46.6 °F /  8.1 °C 45.1 °F /  7.3 °C 29.8in /  1008.1hPa Calm   1mph /  1.6km/h 95% 0.02in /  0.5mm 0 W/m2
18:15 46.6 °F /  8.1 °C 45.1 °F /  7.3 °C 29.8in /  1008.1hPa Calm     95% 0.02in /  0.5mm 0 W/m2
18:20 46.6 °F /  8.1 °C 45.1 °F /  7.3 °C 29.8in /  1008.1hPa Calm     95% 0.02in /  0.5mm 0 W/m2
18:25 46.8 °F /  8.2 °C 45.3 °F /  7.4 °C 29.8in /  1008.1hPa Calm     95% 0.02in /  0.5mm 0 W/m2
18:30 46.8 °F /  8.2 °C 45.3 °F /  7.4 °C 29.8in /  1008.1hPa Calm     95% 0.03in /  0.8mm 0 W/m2
18:35 46.8 °F /  8.2 °C 45.3 °F /  7.4 °C 29.8in /  1008.1hPa Calm     95% 0.03in /  0.8mm 0 W/m2
18:40 46.8 °F /  8.2 °C 45.7 °F /  7.6 °C 29.8in /  1008.1hPa Calm     96% 0.02in /  0.5mm 0 W/m2
18:45 46.8 °F /  8.2 °C 45.7 °F /  7.6 °C 29.8in /  1007.8hPa Calm     96% 0.02in /  0.5mm 0 W/m2
18:50 46.8 °F /  8.2 °C 45.7 °F /  7.6 °C 29.8in /  1007.8hPa Calm     96% 0.02in /  0.5mm 0 W/m2
18:55 46.8 °F /  8.2 °C 45.7 °F /  7.6 °C 29.8in /  1007.8hPa Calm     96% 0.02in /  0.5mm 0 W/m2
19:00 46.8 °F /  8.2 °C 45.7 °F /  7.6 °C 29.8in /  1007.8hPa Calm     96% 0.02in /  0.5mm 0 W/m2
19:05 46.8 °F /  8.2 °C 45.7 °F /  7.6 °C 29.8in /  1007.8hPa Calm     96% 0.02in /  0.5mm 0 W/m2
19:10 46.9 °F /  8.3 °C 45.9 °F /  7.7 °C 29.8in /  1007.5hPa Calm     96% 0.02in /  0.5mm 0 W/m2
19:15 47.1 °F /  8.4 °C 46 °F /  7.8 °C 29.8in /  1007.8hPa Calm     96% 0.02in /  0.5mm 0 W/m2
19:20 47.1 °F /  8.4 °C 46 °F /  7.8 °C 29.8in /  1007.8hPa Calm     96% 0.02in /  0.5mm 0 W/m2
19:25 47.3 °F /  8.5 °C 46.2 °F /  7.9 °C 29.8in /  1007.8hPa Calm     96% 0.02in /  0.5mm 0 W/m2
19:31 47.5 °F /  8.6 °C 46.4 °F /  8 °C 29.8in /  1007.8hPa Calm     96% 0.02in /  0.5mm 0 W/m2
19:36 47.7 °F /  8.7 °C 46.6 °F /  8.1 °C 29.8in /  1007.8hPa Calm     96% 0.02in /  0.5mm 0 W/m2
19:41 47.7 °F /  8.7 °C 46.6 °F /  8.1 °C 29.8in /  1007.8hPa Calm     96% 0.02in /  0.5mm 0 W/m2
19:46 47.8 °F /  8.8 °C 46.8 °F /  8.2 °C 29.8in /  1007.8hPa Calm     96% 0.02in /  0.5mm 0 W/m2
19:51 48 °F /  8.9 °C 46.9 °F /  8.3 °C 29.8in /  1007.8hPa Calm     96% 0.02in /  0.5mm 0 W/m2
19:56 48.2 °F /  9 °C 47.1 °F /  8.4 °C 29.8in /  1007.8hPa Calm     96% 0.02in /  0.5mm 0 W/m2
20:01 48.4 °F /  9.1 °C 47.3 °F /  8.5 °C 29.8in /  1007.8hPa Calm     96% 0.02in /  0.5mm 0 W/m2
20:06 48.6 °F /  9.2 °C 47.5 °F /  8.6 °C 29.8in /  1007.8hPa Calm     96% 0.02in /  0.5mm 0 W/m2
20:11 48.6 °F /  9.2 °C 47.5 °F /  8.6 °C 29.8in /  1007.8hPa Calm     96% 0.02in /  0.5mm 0 W/m2
20:16 48.6 °F /  9.2 °C 47.5 °F /  8.6 °C 29.8in /  1007.8hPa Calm     96% 0.02in /  0.5mm 0 W/m2
20:21 48.7 °F /  9.3 °C 47.7 °F /  8.7 °C 29.8in /  1007.8hPa Calm     96% 0.02in /  0.5mm 0 W/m2
20:26 48.7 °F /  9.3 °C 47.7 °F /  8.7 °C 29.8in /  1007.8hPa Calm     96% 0.03in /  0.8mm 0 W/m2
20:31 48.9 °F /  9.4 °C 47.8 °F /  8.8 °C 29.8in /  1007.8hPa Calm     96% 0.05in /  1.3mm 0 W/m2
20:36 49.1 °F /  9.5 °C 48 °F /  8.9 °C 29.8in /  1007.8hPa Calm     96% 0.05in /  1.3mm 0 W/m2
20:41 49.3 °F /  9.6 °C 48.2 °F /  9 °C 29.8in /  1007.8hPa Calm     96% 0.05in /  1.3mm 0 W/m2
20:46 49.6 °F /  9.8 °C 48.7 °F /  9.3 °C 29.8in /  1007.8hPa Calm   1mph /  1.6km/h 97% 0.06in /  1.5mm 0 W/m2
20:51 49.8 °F /  9.9 °C 48.9 °F /  9.4 °C 29.8in /  1007.8hPa Calm     97% 0.05in /  1.3mm 0 W/m2
20:56 50.2 °F /  10.1 °C 49.3 °F /  9.6 °C 29.8in /  1007.8hPa Calm   1mph /  1.6km/h 97% 0.05in /  1.3mm 0 W/m2
21:01 50.5 °F /  10.3 °C 49.6 °F /  9.8 °C 29.8in /  1007.8hPa Calm     97% 0.05in /  1.3mm 0 W/m2
21:06 50.7 °F /  10.4 °C 49.8 °F /  9.9 °C 29.8in /  1007.8hPa Calm     97% 0.05in /  1.3mm 0 W/m2
21:11 51.1 °F /  10.6 °C 50.2 °F /  10.1 °C 29.8in /  1007.8hPa Calm     97% 0.05in /  1.3mm 0 W/m2
21:16 51.3 °F /  10.7 °C 50.4 °F /  10.2 °C 29.8in /  1007.8hPa Calm     97% 0.05in /  1.3mm 0 W/m2
21:21 51.4 °F /  10.8 °C 50.5 °F /  10.3 °C 29.8in /  1007.8hPa Calm   1mph /  1.6km/h 97% 0.04in /  1.0mm 0 W/m2
21:26 51.6 °F /  10.9 °C 50.7 °F /  10.4 °C 29.8in /  1007.8hPa Calm   1mph /  1.6km/h 97% 0.03in /  0.8mm 0 W/m2
21:31 51.8 °F /  11 °C 50.9 °F /  10.5 °C 29.8in /  1007.8hPa Calm     97% 0.02in /  0.5mm 0 W/m2
21:36 52 °F /  11.1 °C 51.1 °F /  10.6 °C 29.8in /  1007.8hPa Calm   1mph /  1.6km/h 97% 0.02in /  0.5mm 0 W/m2
21:41 52.2 °F /  11.2 °C 51.1 °F /  10.6 °C 29.8in /  1008.1hPa Calm     96% 0.02in /  0.5mm 0 W/m2
21:46 52.3 °F /  11.3 °C 51.3 °F /  10.7 °C 29.8in /  1008.1hPa Calm     96% 0.02in /  0.5mm 0 W/m2
21:51 52.3 °F /  11.3 °C 51.3 °F /  10.7 °C 29.8in /  1008.1hPa Calm     96% 0.02in /  0.5mm 0 W/m2
21:56 52.3 °F /  11.3 °C 51.3 °F /  10.7 °C 29.8in /  1008.1hPa Calm     96% 0.02in /  0.5mm 0 W/m2
22:01 52.3 °F /  11.3 °C 51.3 °F /  10.7 °C 29.8in /  1008.1hPa Calm   3mph /  4.8km/h 96% 0.02in /  0.5mm 0 W/m2
22:06 52.5 °F /  11.4 °C 51.4 °F /  10.8 °C 29.8in /  1008.5hPa Calm     96% 0.01in /  0.2mm 0 W/m2
22:11 52.5 °F /  11.4 °C 51.4 °F /  10.8 °C 29.8in /  1008.5hPa West 2mph /  3.2km/h 2mph /  3.2km/h 96% 0.01in /  0.2mm 0 W/m2
22:16 52.5 °F /  11.4 °C 51.1 °F /  10.6 °C 29.8in /  1008.1hPa Calm   14mph /  22.5km/h 95% 0.01in /  0.2mm 0 W/m2
22:21 52.5 °F /  11.4 °C 51.1 °F /  10.6 °C 29.8in /  1008.1hPa Calm     95% 0.01in /  0.2mm 0 W/m2
22:26 52.5 °F /  11.4 °C 51.1 °F /  10.6 °C 29.8in /  1008.1hPa Calm   8mph /  12.9km/h 95% 0.02in /  0.5mm 0 W/m2
22:31 52.5 °F /  11.4 °C 51.1 °F /  10.6 °C 29.8in /  1008.5hPa Calm   16mph /  25.7km/h 95% 0.01in /  0.2mm 0 W/m2
22:36 52.5 °F /  11.4 °C 51.1 °F /  10.6 °C 29.8in /  1008.5hPa Calm     95% 0.01in /  0.2mm 0 W/m2
22:41 52.5 °F /  11.4 °C 51.1 °F /  10.6 °C 29.8in /  1008.5hPa Calm   6mph /  9.7km/h 95% 0.01in /  0.2mm 0 W/m2
22:46 52.5 °F /  11.4 °C 51.1 °F /  10.6 °C 29.8in /  1008.5hPa Calm     95% 0.01in /  0.2mm 0 W/m2
22:51 52.5 °F /  11.4 °C 51.1 °F /  10.6 °C 29.8in /  1008.5hPa Calm   1mph /  1.6km/h 95% 0.01in /  0.2mm 0 W/m2
22:56 52.5 °F /  11.4 °C 51.1 °F /  10.6 °C 29.8in /  1008.5hPa Calm   4mph /  6.4km/h 95% 0.01in /  0.2mm 0 W/m2
23:01 52.5 °F /  11.4 °C 51.1 °F /  10.6 °C 29.8in /  1008.8hPa Calm     95% 0.01in /  0.2mm 0 W/m2
23:06 52.5 °F /  11.4 °C 51.1 °F /  10.6 °C 29.8in /  1008.8hPa Calm     95% 0.01in /  0.2mm 0 W/m2
23:11 52.5 °F /  11.4 °C 51.1 °F /  10.6 °C 29.8in /  1008.8hPa Calm     95% 0.01in /  0.2mm 0 W/m2
23:16 52.5 °F /  11.4 °C 51.1 °F /  10.6 °C 29.8in /  1008.8hPa Calm     95% 0.02in /  0.5mm 0 W/m2
23:21 52.5 °F /  11.4 °C 51.1 °F /  10.6 °C 29.8in /  1008.8hPa Calm     95% 0.02in /  0.5mm 0 W/m2
23:26 52.5 °F /  11.4 °C 51.1 °F /  10.6 °C 29.8in /  1008.8hPa Calm     95% 0.01in /  0.2mm 0 W/m2
23:31 52.5 °F /  11.4 °C 51.4 °F /  10.8 °C 29.8in /  1008.8hPa Calm     96% 0.01in /  0.2mm 0 W/m2
23:36 52.5 °F /  11.4 °C 51.4 °F /  10.8 °C 29.8in /  1008.8hPa Calm     96% 0.01in /  0.2mm 0 W/m2
23:41 52.5 °F /  11.4 °C 51.4 °F /  10.8 °C 29.8in /  1008.8hPa Calm     96% 0.01in /  0.2mm 0 W/m2
23:46 52.5 °F /  11.4 °C 51.4 °F /  10.8 °C 29.8in /  1008.8hPa West 14.1mph /  22.7km/h 14mph /  22.5km/h 96% 0.01in /  0.2mm 0 W/m2
23:51 52.5 °F /  11.4 °C 51.4 °F /  10.8 °C 29.8in /  1009.1hPa Calm     96% 0.01in /  0.2mm 0 W/m2
23:56 52.5 °F /  11.4 °C 51.1 °F /  10.6 °C 29.8in /  1009.1hPa Calm   15mph /  24.1km/h 95% 0.01in /  0.2mm 0 W/m2
Juneau County Weather
Compliments of Weather Underground - 4 mb